sensor_id;sensor_type;location;lat;lon;timestamp;pressure;altitude;pressure_sealevel;temperature;humidity
79799;BME280;69283;48.024;11.090;2023-04-25T00:00:10;94777.16;;;6.58;70.09
79799;BME280;69283;48.024;11.090;2023-04-25T00:02:35;94777.63;;;6.60;70.05
79799;BME280;69283;48.024;11.090;2023-04-25T00:05:01;94774.47;;;6.58;70.80
79799;BME280;69283;48.024;11.090;2023-04-25T00:07:27;94768.28;;;6.58;70.38
79799;BME280;69283;48.024;11.090;2023-04-25T00:09:52;94763.38;;;6.60;70.85
79799;BME280;69283;48.024;11.090;2023-04-25T00:12:17;94770.03;;;6.62;70.08
79799;BME280;69283;48.024;11.090;2023-04-25T00:14:43;94764.66;;;6.62;69.87
79799;BME280;69283;48.024;11.090;2023-04-25T00:17:09;94765.25;;;6.59;69.58
79799;BME280;69283;48.024;11.090;2023-04-25T00:19:34;94765.59;;;6.58;69.77
79799;BME280;69283;48.024;11.090;2023-04-25T00:21:59;94766.84;;;6.60;69.79
79799;BME280;69283;48.024;11.090;2023-04-25T00:24:25;94769.88;;;6.59;68.56
79799;BME280;69283;48.024;11.090;2023-04-25T00:26:50;94765.25;;;6.59;69.27
79799;BME280;69283;48.024;11.090;2023-04-25T00:29:15;94764.66;;;6.62;69.65
79799;BME280;69283;48.024;11.090;2023-04-25T00:31:41;94765.25;;;6.59;68.87
79799;BME280;69283;48.024;11.090;2023-04-25T00:34:06;94759.88;;;6.59;68.76
79799;BME280;69283;48.024;11.090;2023-04-25T00:36:33;94759.88;;;6.59;68.79
79799;BME280;69283;48.024;11.090;2023-04-25T00:38:58;94761.78;;;6.59;69.18
79799;BME280;69283;48.024;11.090;2023-04-25T00:41:25;94755.94;;;6.57;68.82
79799;BME280;69283;48.024;11.090;2023-04-25T00:43:51;94756.47;;;6.50;68.72
79799;BME280;69283;48.024;11.090;2023-04-25T00:46:17;94753.44;;;6.52;69.91
79799;BME280;69283;48.024;11.090;2023-04-25T00:48:42;94760.72;;;6.51;69.30
79799;BME280;69283;48.024;11.090;2023-04-25T00:51:08;94751.06;;;6.50;69.57
79799;BME280;69283;48.024;11.090;2023-04-25T00:53:34;94752.06;;;6.46;69.31
79799;BME280;69283;48.024;11.090;2023-04-25T00:56:00;94741.94;;;6.43;68.73
79799;BME280;69283;48.024;11.090;2023-04-25T00:58:25;94730.06;;;6.44;68.07
79799;BME280;69283;48.024;11.090;2023-04-25T01:00:51;94733.69;;;6.39;68.87
79799;BME280;69283;48.024;11.090;2023-04-25T01:03:17;94732.13;;;6.38;68.57
79799;BME280;69283;48.024;11.090;2023-04-25T01:05:45;94728.50;;;6.34;68.59
79799;BME280;69283;48.024;11.090;2023-04-25T01:08:10;94733.88;;;6.34;68.77
79799;BME280;69283;48.024;11.090;2023-04-25T01:10:36;94733.44;;;6.32;68.50
79799;BME280;69283;48.024;11.090;2023-04-25T01:13:02;94732.97;;;6.30;69.66
79799;BME280;69283;48.024;11.090;2023-04-25T01:15:28;94733.94;;;6.25;69.29
79799;BME280;69283;48.024;11.090;2023-04-25T01:17:53;94733.00;;;6.21;68.82
79799;BME280;69283;48.024;11.090;2023-04-25T01:20:22;94733.16;;;6.16;68.97
79799;BME280;69283;48.024;11.090;2023-04-25T01:22:52;94731.91;;;6.14;69.53
79799;BME280;69283;48.024;11.090;2023-04-25T01:25:18;94727.66;;;6.13;68.74
79799;BME280;69283;48.024;11.090;2023-04-25T01:27:44;94725.47;;;6.06;69.73
79799;BME280;69283;48.024;11.090;2023-04-25T01:30:10;94734.97;;;5.95;70.79
79799;BME280;69283;48.024;11.090;2023-04-25T01:32:36;94734.84;;;5.91;71.95
79799;BME280;69283;48.024;11.090;2023-04-25T01:35:06;94732.94;;;5.83;71.65
79799;BME280;69283;48.024;11.090;2023-04-25T01:37:41;94729.94;;;5.76;71.96
79799;BME280;69283;48.024;11.090;2023-04-25T01:40:09;94717.94;;;5.73;71.77
79799;BME280;69283;48.024;11.090;2023-04-25T01:42:37;94718.28;;;5.63;71.41
79799;BME280;69283;48.024;11.090;2023-04-25T01:45:03;94729.97;;;5.59;72.60
79799;BME280;69283;48.024;11.090;2023-04-25T01:47:28;94728.06;;;5.59;71.28
79799;BME280;69283;48.024;11.090;2023-04-25T01:49:54;94730.63;;;5.56;72.53
79799;BME280;69283;48.024;11.090;2023-04-25T01:52:20;94734.41;;;5.55;72.25
79799;BME280;69283;48.024;11.090;2023-04-25T01:54:46;94724.78;;;5.54;72.58
79799;BME280;69283;48.024;11.090;2023-04-25T01:57:11;94722.56;;;5.56;71.73
79799;BME280;69283;48.024;11.090;2023-04-25T01:59:37;94724.31;;;5.52;72.33
79799;BME280;69283;48.024;11.090;2023-04-25T02:02:03;94728.09;;;5.50;72.89
79799;BME280;69283;48.024;11.090;2023-04-25T02:04:29;94729.34;;;5.53;73.21
79799;BME280;69283;48.024;11.090;2023-04-25T02:06:54;94730.16;;;5.54;72.67
79799;BME280;69283;48.024;11.090;2023-04-25T02:09:20;94729.22;;;5.49;72.30
79799;BME280;69283;48.024;11.090;2023-04-25T02:11:45;94734.59;;;5.49;72.20
79799;BME280;69283;48.024;11.090;2023-04-25T02:14:10;94728.25;;;5.54;71.16
79799;BME280;69283;48.024;11.090;2023-04-25T02:16:36;94728.56;;;5.53;72.22
79799;BME280;69283;48.024;11.090;2023-04-25T02:19:01;94724.59;;;5.59;71.85
79799;BME280;69283;48.024;11.090;2023-04-25T02:21:26;94727.28;;;5.59;72.49
79799;BME280;69283;48.024;11.090;2023-04-25T02:23:52;94731.41;;;5.65;71.98
79799;BME280;69283;48.024;11.090;2023-04-25T02:26:17;94730.44;;;5.69;71.94
79799;BME280;69283;48.024;11.090;2023-04-25T02:28:43;94737.88;;;5.72;72.54
79799;BME280;69283;48.024;11.090;2023-04-25T02:31:08;94777.06;;;5.73;72.89
79799;BME280;69283;48.024;11.090;2023-04-25T02:33:33;94781.50;;;5.69;73.88
79799;BME280;69283;48.024;11.090;2023-04-25T02:35:59;94780.88;;;5.55;75.63
79799;BME280;69283;48.024;11.090;2023-04-25T02:38:24;94765.75;;;5.42;76.53
79799;BME280;69283;48.024;11.090;2023-04-25T02:40:50;94760.50;;;5.37;76.92
79799;BME280;69283;48.024;11.090;2023-04-25T02:43:15;94766.03;;;5.32;78.50
79799;BME280;69283;48.024;11.090;2023-04-25T02:45:41;94755.16;;;5.28;77.97
79799;BME280;69283;48.024;11.090;2023-04-25T02:48:06;94758.31;;;5.30;78.72
79799;BME280;69283;48.024;11.090;2023-04-25T02:50:31;94743.63;;;5.28;78.33
79799;BME280;69283;48.024;11.090;2023-04-25T02:52:57;94745.69;;;5.22;79.41
79799;BME280;69283;48.024;11.090;2023-04-25T02:55:22;94740.31;;;5.22;78.55
79799;BME280;69283;48.024;11.090;2023-04-25T02:57:47;94746.44;;;5.14;79.44
79799;BME280;69283;48.024;11.090;2023-04-25T03:00:13;94749.94;;;5.14;79.84
79799;BME280;69283;48.024;11.090;2023-04-25T03:02:39;94744.69;;;5.18;79.89
79799;BME280;69283;48.024;11.090;2023-04-25T03:05:04;94734.28;;;5.08;80.47
79799;BME280;69283;48.024;11.090;2023-04-25T03:07:31;94742.50;;;5.03;80.65
79799;BME280;69283;48.024;11.090;2023-04-25T03:09:56;94733.47;;;4.99;81.16
79799;BME280;69283;48.024;11.090;2023-04-25T03:12:21;94731.91;;;4.89;81.18
79799;BME280;69283;48.024;11.090;2023-04-25T03:14:47;94730.00;;;4.89;81.55
79799;BME280;69283;48.024;11.090;2023-04-25T03:17:12;94722.75;;;4.90;81.26
79799;BME280;69283;48.024;11.090;2023-04-25T03:19:37;94727.97;;;4.86;81.19
79799;BME280;69283;48.024;11.090;2023-04-25T03:22:03;94731.13;;;4.88;81.98
79799;BME280;69283;48.024;11.090;2023-04-25T03:24:28;94724.34;;;4.82;81.29
79799;BME280;69283;48.024;11.090;2023-04-25T03:26:53;94724.66;;;4.81;81.71
79799;BME280;69283;48.024;11.090;2023-04-25T03:29:19;94717.50;;;4.76;81.74
79799;BME280;69283;48.024;11.090;2023-04-25T03:31:44;94715.00;;;4.71;81.88
79799;BME280;69283;48.024;11.090;2023-04-25T03:34:10;94714.03;;;4.67;81.85
79799;BME280;69283;48.024;11.090;2023-04-25T03:36:35;94714.03;;;4.67;81.94
79799;BME280;69283;48.024;11.090;2023-04-25T03:39:01;94715.59;;;4.59;81.98
79799;BME280;69283;48.024;11.090;2023-04-25T03:41:26;94715.91;;;4.58;82.06
79799;BME280;69283;48.024;11.090;2023-04-25T03:43:51;94720.16;;;4.50;82.79
79799;BME280;69283;48.024;11.090;2023-04-25T03:46:17;94705.47;;;4.48;83.07
79799;BME280;69283;48.024;11.090;2023-04-25T03:48:42;94702.81;;;4.56;82.36
79799;BME280;69283;48.024;11.090;2023-04-25T03:51:07;94706.16;;;4.62;82.84
79799;BME280;69283;48.024;11.090;2023-04-25T03:53:32;94711.66;;;4.66;83.08
79799;BME280;69283;48.024;11.090;2023-04-25T03:55:58;94704.25;;;4.71;82.81
79799;BME280;69283;48.024;11.090;2023-04-25T03:58:23;94702.50;;;4.75;82.40
79799;BME280;69283;48.024;11.090;2023-04-25T04:00:49;94698.72;;;4.76;82.92
79799;BME280;69283;48.024;11.090;2023-04-25T04:03:14;94712.94;;;4.77;82.87
79799;BME280;69283;48.024;11.090;2023-04-25T04:05:40;94719.44;;;4.84;83.31
79799;BME280;69283;48.024;11.090;2023-04-25T04:08:06;94726.06;;;4.87;82.49
79799;BME280;69283;48.024;11.090;2023-04-25T04:10:31;94729.69;;;4.91;82.17
79799;BME280;69283;48.024;11.090;2023-04-25T04:12:56;94736.16;;;4.90;82.77
79799;BME280;69283;48.024;11.090;2023-04-25T04:15:21;94711.06;;;4.86;81.73
79799;BME280;69283;48.024;11.090;2023-04-25T04:17:48;94703.97;;;4.81;81.71
79799;BME280;69283;48.024;11.090;2023-04-25T04:20:13;94698.59;;;4.81;82.43
79799;BME280;69283;48.024;11.090;2023-04-25T04:22:39;94698.88;;;4.80;82.68
79799;BME280;69283;48.024;11.090;2023-04-25T04:25:04;94695.72;;;4.78;82.49
79799;BME280;69283;48.024;11.090;2023-04-25T04:27:31;94684.66;;;4.79;82.75
79799;BME280;69283;48.024;11.090;2023-04-25T04:29:56;94688.81;;;4.85;84.01
79799;BME280;69283;48.024;11.090;2023-04-25T04:32:23;94698.91;;;4.88;83.15
79799;BME280;69283;48.024;11.090;2023-04-25T04:34:48;94720.22;;;4.94;83.38
79799;BME280;69283;48.024;11.090;2023-04-25T04:37:14;94718.16;;;4.99;83.40
79799;BME280;69283;48.024;11.090;2023-04-25T04:39:39;94710.59;;;5.01;82.33
79799;BME280;69283;48.024;11.090;2023-04-25T04:42:05;94717.06;;;5.00;82.56
79799;BME280;69283;48.024;11.090;2023-04-25T04:44:31;94721.50;;;5.05;83.13
79799;BME280;69283;48.024;11.090;2023-04-25T04:47:00;94717.56;;;5.02;82.37
79799;BME280;69283;48.024;11.090;2023-04-25T04:49:26;94704.28;;;5.06;82.61
79799;BME280;69283;48.024;11.090;2023-04-25T04:51:52;94696.22;;;5.06;81.48
79799;BME280;69283;48.024;11.090;2023-04-25T04:54:19;94701.28;;;5.07;81.96
79799;BME280;69283;48.024;11.090;2023-04-25T04:56:45;94700.47;;;5.07;82.11
79799;BME280;69283;48.024;11.090;2023-04-25T04:59:10;94699.84;;;5.10;81.22
79799;BME280;69283;48.024;11.090;2023-04-25T05:01:36;94699.38;;;5.08;81.39
79799;BME280;69283;48.024;11.090;2023-04-25T05:04:01;94705.06;;;5.06;82.18
79799;BME280;69283;48.024;11.090;2023-04-25T05:06:27;94703.78;;;5.12;81.67
79799;BME280;69283;48.024;11.090;2023-04-25T05:08:54;94706.16;;;5.14;82.20
79799;BME280;69283;48.024;11.090;2023-04-25T05:11:19;94707.75;;;5.15;82.08
79799;BME280;69283;48.024;11.090;2023-04-25T05:13:46;94708.84;;;5.23;82.63
79799;BME280;69283;48.024;11.090;2023-04-25T05:16:12;94712.81;;;5.25;82.57
79799;BME280;69283;48.024;11.090;2023-04-25T05:18:38;94718.31;;;5.29;81.96
79799;BME280;69283;48.024;11.090;2023-04-25T05:21:03;94709.94;;;5.30;82.60
79799;BME280;69283;48.024;11.090;2023-04-25T05:23:29;94714.81;;;5.37;82.32
79799;BME280;69283;48.024;11.090;2023-04-25T05:25:55;94709.13;;;5.38;83.08
79799;BME280;69283;48.024;11.090;2023-04-25T05:28:21;94717.06;;;5.43;83.63
79799;BME280;69283;48.024;11.090;2023-04-25T05:30:46;94719.41;;;5.45;83.07
79799;BME280;69283;48.024;11.090;2023-04-25T05:33:11;94728.56;;;5.53;84.22
79799;BME280;69283;48.024;11.090;2023-04-25T05:35:36;94714.94;;;5.58;81.86
79799;BME280;69283;48.024;11.090;2023-04-25T05:38:02;94716.53;;;5.59;82.13
79799;BME280;69283;48.024;11.090;2023-04-25T05:40:27;94710.84;;;5.60;81.88
79799;BME280;69283;48.024;11.090;2023-04-25T05:42:52;94712.91;;;5.63;81.41
79799;BME280;69283;48.024;11.090;2023-04-25T05:45:18;94714.94;;;5.66;81.75
79799;BME280;69283;48.024;11.090;2023-04-25T05:47:43;94716.69;;;5.71;82.78
79799;BME280;69283;48.024;11.090;2023-04-25T05:50:08;94716.03;;;5.74;83.01
79799;BME280;69283;48.024;11.090;2023-04-25T05:52:34;94719.66;;;5.78;82.69
79799;BME280;69283;48.024;11.090;2023-04-25T05:54:59;94719.66;;;5.78;81.88
79799;BME280;69283;48.024;11.090;2023-04-25T05:57:26;94719.50;;;5.83;82.50
79799;BME280;69283;48.024;11.090;2023-04-25T05:59:52;94719.66;;;5.87;82.32
79799;BME280;69283;48.024;11.090;2023-04-25T06:02:18;94707.47;;;5.89;80.12
79799;BME280;69283;48.024;11.090;2023-04-25T06:04:44;94718.53;;;5.88;80.20
79799;BME280;69283;48.024;11.090;2023-04-25T06:07:09;94715.03;;;5.96;80.68
79799;BME280;69283;48.024;11.090;2023-04-25T06:09:35;94712.34;;;5.96;80.20
79799;BME280;69283;48.024;11.090;2023-04-25T06:12:00;94710.31;;;6.01;80.38
79799;BME280;69283;48.024;11.090;2023-04-25T06:14:26;94710.69;;;6.21;81.13
79799;BME280;69283;48.024;11.090;2023-04-25T06:16:52;94705.59;;;6.28;80.30
79799;BME280;69283;48.024;11.090;2023-04-25T06:19:17;94712.56;;;6.29;79.88
79799;BME280;69283;48.024;11.090;2023-04-25T06:21:43;94711.53;;;6.42;79.40
79799;BME280;69283;48.024;11.090;2023-04-25T06:24:09;94709.38;;;6.56;79.20
79799;BME280;69283;48.024;11.090;2023-04-25T06:26:34;94698.78;;;6.81;79.25
79799;BME280;69283;48.024;11.090;2023-04-25T06:28:59;94704.78;;;6.86;78.46
79799;BME280;69283;48.024;11.090;2023-04-25T06:31:25;94704.13;;;6.89;77.51
79799;BME280;69283;48.024;11.090;2023-04-25T06:33:50;94701.69;;;6.96;77.35
79799;BME280;69283;48.024;11.090;2023-04-25T06:36:19;94702.59;;;7.00;77.41
79799;BME280;69283;48.024;11.090;2023-04-25T06:38:49;94701.69;;;6.96;76.83
79799;BME280;69283;48.024;11.090;2023-04-25T06:41:15;94699.44;;;6.98;76.95
79799;BME280;69283;48.024;11.090;2023-04-25T06:43:40;94690.41;;;7.03;78.10
79799;BME280;69283;48.024;11.090;2023-04-25T06:46:05;94696.09;;;7.22;76.81
79799;BME280;69283;48.024;11.090;2023-04-25T06:48:31;94694.06;;;7.52;76.34
79799;BME280;69283;48.024;11.090;2023-04-25T06:50:56;94681.50;;;8.02;75.61
79799;BME280;69283;48.024;11.090;2023-04-25T06:53:21;94683.34;;;8.34;74.81
79799;BME280;69283;48.024;11.090;2023-04-25T06:55:47;94675.22;;;8.59;72.72
79799;BME280;69283;48.024;11.090;2023-04-25T06:58:12;94682.16;;;8.96;72.42
79799;BME280;69283;48.024;11.090;2023-04-25T07:00:37;94678.19;;;9.06;70.77
79799;BME280;69283;48.024;11.090;2023-04-25T07:03:03;94684.75;;;9.33;69.05
79799;BME280;69283;48.024;11.090;2023-04-25T07:05:28;94674.09;;;9.52;69.76
79799;BME280;69283;48.024;11.090;2023-04-25T07:07:53;94666.75;;;9.53;68.27
79799;BME280;69283;48.024;11.090;2023-04-25T07:10:19;94678.22;;;9.77;68.71
79799;BME280;69283;48.024;11.090;2023-04-25T07:12:44;94673.22;;;10.07;67.50
79799;BME280;69283;48.024;11.090;2023-04-25T07:15:09;94658.91;;;10.07;64.78
79799;BME280;69283;48.024;11.090;2023-04-25T07:17:36;94661.59;;;10.07;65.43
79799;BME280;69283;48.024;11.090;2023-04-25T07:20:02;94667.22;;;10.30;63.38
79799;BME280;69283;48.024;11.090;2023-04-25T07:22:28;94676.91;;;10.31;63.37
79799;BME280;69283;48.024;11.090;2023-04-25T07:24:54;94674.28;;;10.50;64.68
79799;BME280;69283;48.024;11.090;2023-04-25T07:27:20;94671.75;;;10.42;61.80
79799;BME280;69283;48.024;11.090;2023-04-25T07:29:46;94669.28;;;10.68;63.90
79799;BME280;69283;48.024;11.090;2023-04-25T07:32:11;94661.91;;;10.84;62.07
79799;BME280;69283;48.024;11.090;2023-04-25T07:34:38;94659.75;;;10.93;59.81
79799;BME280;69283;48.024;11.090;2023-04-25T07:37:04;94667.19;;;11.16;61.06
79799;BME280;69283;48.024;11.090;2023-04-25T07:39:29;94663.50;;;11.05;60.05
79799;BME280;69283;48.024;11.090;2023-04-25T07:41:54;94672.56;;;10.77;58.77
79799;BME280;69283;48.024;11.090;2023-04-25T07:44:20;94673.41;;;10.46;58.86
79799;BME280;69283;48.024;11.090;2023-04-25T07:46:45;94673.13;;;10.35;58.91
79799;BME280;69283;48.024;11.090;2023-04-25T07:49:10;94672.69;;;10.18;59.32
79799;BME280;69283;48.024;11.090;2023-04-25T07:51:36;94671.03;;;10.13;59.71
79799;BME280;69283;48.024;11.090;2023-04-25T07:54:01;94670.28;;;10.28;59.88
79799;BME280;69283;48.024;11.090;2023-04-25T07:56:27;94672.53;;;10.26;60.27
79799;BME280;69283;48.024;11.090;2023-04-25T07:58:53;94671.88;;;10.17;60.61
79799;BME280;69283;48.024;11.090;2023-04-25T08:01:18;94665.59;;;10.13;60.10
79799;BME280;69283;48.024;11.090;2023-04-25T08:03:45;94665.88;;;10.08;59.41
79799;BME280;69283;48.024;11.090;2023-04-25T08:06:11;94668.31;;;9.97;58.86
79799;BME280;69283;48.024;11.090;2023-04-25T08:08:36;94662.19;;;9.85;59.96
79799;BME280;69283;48.024;11.090;2023-04-25T08:11:01;94668.41;;;9.85;59.53
79799;BME280;69283;48.024;11.090;2023-04-25T08:13:27;94671.78;;;9.82;59.15
79799;BME280;69283;48.024;11.090;2023-04-25T08:15:52;94665.78;;;9.89;60.17
79799;BME280;69283;48.024;11.090;2023-04-25T08:18:18;94661.16;;;9.89;58.80
79799;BME280;69283;48.024;11.090;2023-04-25T08:20:43;94660.19;;;10.13;58.16
79799;BME280;69283;48.024;11.090;2023-04-25T08:23:08;94671.56;;;10.34;58.29
79799;BME280;69283;48.024;11.090;2023-04-25T08:25:35;94666.22;;;10.38;56.95
79799;BME280;69283;48.024;11.090;2023-04-25T08:28:01;94661.78;;;10.61;55.31
79799;BME280;69283;48.024;11.090;2023-04-25T08:30:28;94658.47;;;10.87;53.33
79799;BME280;69283;48.024;11.090;2023-04-25T08:32:53;94651.66;;;11.13;52.14
79799;BME280;69283;48.024;11.090;2023-04-25T08:35:18;94663.09;;;11.41;52.46
79799;BME280;69283;48.024;11.090;2023-04-25T08:37:43;94661.41;;;11.75;53.65
79799;BME280;69283;48.024;11.090;2023-04-25T08:40:12;94663.22;;;11.87;51.44
79799;BME280;69283;48.024;11.090;2023-04-25T08:42:41;94650.13;;;11.93;49.37
79799;BME280;69283;48.024;11.090;2023-04-25T08:45:08;94663.69;;;11.73;48.41
79799;BME280;69283;48.024;11.090;2023-04-25T08:47:34;94678.41;;;11.53;48.96
79799;BME280;69283;48.024;11.090;2023-04-25T08:50:02;94679.63;;;11.36;47.73
79799;BME280;69283;48.024;11.090;2023-04-25T08:52:30;94675.75;;;11.18;49.37
79799;BME280;69283;48.024;11.090;2023-04-25T08:54:58;94675.31;;;10.96;49.77
79799;BME280;69283;48.024;11.090;2023-04-25T08:57:25;94682.78;;;10.84;50.78
79799;BME280;69283;48.024;11.090;2023-04-25T08:59:52;94686.53;;;10.79;51.14
79799;BME280;69283;48.024;11.090;2023-04-25T09:02:18;94683.69;;;10.72;51.72
79799;BME280;69283;48.024;11.090;2023-04-25T09:04:45;94683.56;;;10.84;52.67
79799;BME280;69283;48.024;11.090;2023-04-25T09:07:11;94684.09;;;10.90;52.17
79799;BME280;69283;48.024;11.090;2023-04-25T09:09:36;94680.91;;;11.04;51.00
79799;BME280;69283;48.024;11.090;2023-04-25T09:12:02;94679.47;;;11.10;52.85
79799;BME280;69283;48.024;11.090;2023-04-25T09:14:27;94681.41;;;11.28;51.42
79799;BME280;69283;48.024;11.090;2023-04-25T09:19:22;94677.09;;;11.43;47.96
79799;BME280;69283;48.024;11.090;2023-04-25T09:21:54;94685.34;;;11.70;50.04
79799;BME280;69283;48.024;11.090;2023-04-25T09:24:35;94687.47;;;11.80;48.57
79799;BME280;69283;48.024;11.090;2023-04-25T09:27:06;94690.09;;;11.76;48.31
79799;BME280;69283;48.024;11.090;2023-04-25T09:29:33;94697.06;;;11.54;48.86
79799;BME280;69283;48.024;11.090;2023-04-25T09:32:31;94700.19;;;11.37;48.99
79799;BME280;69283;48.024;11.090;2023-04-25T09:34:57;94697.47;;;11.18;50.19
79799;BME280;69283;48.024;11.090;2023-04-25T09:37:25;94704.16;;;11.05;49.63
79799;BME280;69283;48.024;11.090;2023-04-25T09:39:58;94717.91;;;10.96;50.58
79799;BME280;69283;48.024;11.090;2023-04-25T09:42:30;94703.84;;;10.90;51.10
79799;BME280;69283;48.024;11.090;2023-04-25T09:44:57;94713.81;;;10.86;51.52
79799;BME280;69283;48.024;11.090;2023-04-25T09:47:24;94715.03;;;10.89;50.86
79799;BME280;69283;48.024;11.090;2023-04-25T09:49:50;94719.69;;;10.88;52.63
79799;BME280;69283;48.024;11.090;2023-04-25T09:52:20;94719.59;;;10.85;51.09
79799;BME280;69283;48.024;11.090;2023-04-25T09:54:47;94725.72;;;10.82;51.14
79799;BME280;69283;48.024;11.090;2023-04-25T09:57:21;94726.31;;;10.75;51.60
79799;BME280;69283;48.024;11.090;2023-04-25T09:59:51;94736.66;;;10.70;51.13
79799;BME280;69283;48.024;11.090;2023-04-25T10:02:18;94733.00;;;10.30;52.12
79799;BME280;69283;48.024;11.090;2023-04-25T10:04:50;94741.72;;;10.24;52.73
79799;BME280;69283;48.024;11.090;2023-04-25T10:07:18;94744.47;;;10.12;54.41
79799;BME280;69283;48.024;11.090;2023-04-25T10:09:47;94743.31;;;9.97;57.09
79799;BME280;69283;48.024;11.090;2023-04-25T10:12:14;94748.53;;;9.90;60.25
79799;BME280;69283;48.024;11.090;2023-04-25T10:14:41;94755.63;;;9.66;57.99
79799;BME280;69283;48.024;11.090;2023-04-25T10:17:10;94759.06;;;9.51;59.29
79799;BME280;69283;48.024;11.090;2023-04-25T10:19:36;94756.81;;;9.41;60.55
79799;BME280;69283;48.024;11.090;2023-04-25T10:22:07;94755.47;;;9.47;62.80
79799;BME280;69283;48.024;11.090;2023-04-25T10:24:37;94766.81;;;9.53;61.85
79799;BME280;69283;48.024;11.090;2023-04-25T10:27:04;94772.31;;;9.56;63.33
79799;BME280;69283;48.024;11.090;2023-04-25T10:29:29;94783.16;;;9.56;62.00
79799;BME280;69283;48.024;11.090;2023-04-25T10:31:56;94781.72;;;9.47;60.07
79799;BME280;69283;48.024;11.090;2023-04-25T10:34:42;94797.66;;;9.24;62.32
79799;BME280;69283;48.024;11.090;2023-04-25T10:37:11;94794.63;;;9.01;62.35
79799;BME280;69283;48.024;11.090;2023-04-25T10:39:39;94793.63;;;8.93;64.21
79799;BME280;69283;48.024;11.090;2023-04-25T10:42:05;94815.78;;;8.74;65.50
79799;BME280;69283;48.024;11.090;2023-04-25T10:44:31;94826.69;;;8.53;67.82
79799;BME280;69283;48.024;11.090;2023-04-25T10:46:58;94831.81;;;8.34;68.98
79799;BME280;69283;48.024;11.090;2023-04-25T10:49:34;94838.00;;;8.02;70.34
79799;BME280;69283;48.024;11.090;2023-04-25T10:52:13;94844.59;;;7.71;71.73
79799;BME280;69283;48.024;11.090;2023-04-25T10:54:52;94837.22;;;7.59;72.12
79799;BME280;69283;48.024;11.090;2023-04-25T11:02:30;94854.19;;;7.39;73.96
79799;BME280;69283;48.024;11.090;2023-04-25T11:04:56;94846.75;;;7.36;74.22
79799;BME280;69283;48.024;11.090;2023-04-25T11:09:48;94855.56;;;7.24;75.10
79799;BME280;69283;48.024;11.090;2023-04-25T11:12:13;94856.22;;;7.21;75.40
79799;BME280;69283;48.024;11.090;2023-04-25T11:14:40;94847.50;;;7.16;75.51
79799;BME280;69283;48.024;11.090;2023-04-25T11:17:05;94857.16;;;7.17;76.28
79799;BME280;69283;48.024;11.090;2023-04-25T11:19:31;94857.03;;;7.13;76.48
79799;BME280;69283;48.024;11.090;2023-04-25T11:21:57;94854.41;;;7.05;75.19
79799;BME280;69283;48.024;11.090;2023-04-25T11:24:30;94854.72;;;7.03;75.47
79799;BME280;69283;48.024;11.090;2023-04-25T11:26:58;94843.97;;;6.94;74.65
79799;BME280;69283;48.024;11.090;2023-04-25T11:29:27;94853.66;;;6.95;75.13
79799;BME280;69283;48.024;11.090;2023-04-25T11:31:54;94844.78;;;6.95;75.14
79799;BME280;69283;48.024;11.090;2023-04-25T11:34:22;94855.28;;;6.88;74.86
79799;BME280;69283;48.024;11.090;2023-04-25T11:36:48;94850.06;;;6.83;75.58
79799;BME280;69283;48.024;11.090;2023-04-25T11:39:13;94849.56;;;6.89;76.43
79799;BME280;69283;48.024;11.090;2023-04-25T11:41:41;94849.69;;;6.93;76.20
79799;BME280;69283;48.024;11.090;2023-04-25T11:44:06;94851.47;;;6.89;76.58
79799;BME280;69283;48.024;11.090;2023-04-25T11:46:35;94847.78;;;6.93;76.45
79799;BME280;69283;48.024;11.090;2023-04-25T11:49:00;94845.44;;;6.92;75.68
79799;BME280;69283;48.024;11.090;2023-04-25T11:51:25;94854.28;;;7.01;76.79
79799;BME280;69283;48.024;11.090;2023-04-25T11:53:51;94844.75;;;7.04;77.28
79799;BME280;69283;48.024;11.090;2023-04-25T11:56:17;94852.25;;;7.19;77.81
79799;BME280;69283;48.024;11.090;2023-04-25T12:01:29;94849.06;;;7.46;76.38
79799;BME280;69283;48.024;11.090;2023-04-25T12:03:56;94846.50;;;7.50;75.52
79799;BME280;69283;48.024;11.090;2023-04-25T12:06:21;94848.28;;;7.46;74.84
79799;BME280;69283;48.024;11.090;2023-04-25T12:09:08;94850.19;;;7.45;74.74
79799;BME280;69283;48.024;11.090;2023-04-25T12:11:45;94856.38;;;7.46;75.61
79799;BME280;69283;48.024;11.090;2023-04-25T12:14:12;94850.97;;;7.46;75.73
79799;BME280;69283;48.024;11.090;2023-04-25T12:16:46;94843.81;;;7.50;76.39
79799;BME280;69283;48.024;11.090;2023-04-25T12:19:16;94846.75;;;7.57;76.95
79799;BME280;69283;48.024;11.090;2023-04-25T12:21:42;94844.69;;;7.62;76.70
79799;BME280;69283;48.024;11.090;2023-04-25T12:26:51;94846.38;;;7.67;75.71
79799;BME280;69283;48.024;11.090;2023-04-25T12:29:23;94852.03;;;7.74;75.50
79799;BME280;69283;48.024;11.090;2023-04-25T12:31:50;94854.41;;;7.76;75.04
79799;BME280;69283;48.024;11.090;2023-04-25T12:34:16;94852.31;;;7.81;75.82
79799;BME280;69283;48.024;11.090;2023-04-25T12:36:41;94850.97;;;7.87;75.43
79799;BME280;69283;48.024;11.090;2023-04-25T12:39:07;94861.09;;;7.90;74.36
79799;BME280;69283;48.024;11.090;2023-04-25T12:41:33;94857.69;;;8.02;76.08
79799;BME280;69283;48.024;11.090;2023-04-25T12:43:58;94858.72;;;8.10;76.17
79799;BME280;69283;48.024;11.090;2023-04-25T12:46:24;94860.16;;;8.07;74.98
79799;BME280;69283;48.024;11.090;2023-04-25T12:48:49;94856.22;;;8.05;75.37
79799;BME280;69283;48.024;11.090;2023-04-25T12:51:15;94868.72;;;8.09;73.64
79799;BME280;69283;48.024;11.090;2023-04-25T12:53:41;94868.84;;;8.13;75.80
79799;BME280;69283;48.024;11.090;2023-04-25T12:56:09;94868.38;;;8.11;74.59
79799;BME280;69283;48.024;11.090;2023-04-25T12:58:35;94864.78;;;8.07;74.87
79799;BME280;69283;48.024;11.090;2023-04-25T13:01:01;94861.63;;;8.05;74.20
79799;BME280;69283;48.024;11.090;2023-04-25T13:03:26;94873.09;;;8.02;74.91
79799;BME280;69283;48.024;11.090;2023-04-25T13:05:52;94866.22;;;8.04;74.63
79799;BME280;69283;48.024;11.090;2023-04-25T13:08:20;94878.94;;;8.04;73.83